RVTO2: Elk Creek at County Rd Brid nr Roosevelt 6WSW

Data processed at Sun Apr 30 2017 23:22


All information presented herein is the property of the government of the United States of America and may be revised or deleted at any time without prior notice.
Dissemination of this information without the expressed written consent of the Public Affairs Office, Tulsa District U.S. Army Corps of Engineers is strictly prohibited.
These data are gathered electronically and, as presented, have not undergone any form of quality control. These data are not guaranteed to be valid or correct.
Go to home page.
Go to station list.
Go to station map.

Downstream station:


Previous Day
Next Day
Current Day
    
SHEF ID:       RVTO2     Elk Creek at County Rd Brid nr R
STATION TYPE:  

               PRECIP     STAGE  RIV-FLOW   VOLTAGE
                   in        ft       cfs      volt
              Ccp-Rev   Ccp-Rev   Ccp-Rev   Ccp-Rev
(US/Central)
04/30 00:00      0.00     22.48      6948     12.30
04/30 01:00      0.00     22.65      7227     12.30
04/30 02:00      0.00     22.74      7374     12.20
04/30 03:00      0.00     22.74      7374     12.20
04/30 04:00      0.00     22.72      7341     12.10
04/30 05:00      0.00     22.65      7227     12.10
04/30 06:00      0.00     22.66      7243     12.10
04/30 07:00      0.00     22.53      7030     12.10
04/30 08:00      0.00     22.46      6915     12.50
04/30 09:00      0.00     22.39      6801     13.30
04/30 10:00      0.00     22.28      6621     13.90
04/30 11:00      0.00     22.15      6408     13.80
04/30 12:00      0.00     21.90      5999     13.80
04/30 13:00      0.00     21.71      5688     13.60
04/30 14:00      0.00     21.65      5589     13.80
04/30 15:00      0.00     21.57      5458     13.80
04/30 16:00      0.00     21.42      5213     13.80
04/30 17:00      0.00     21.26      4951     13.60
04/30 18:00      0.00     21.01      4542     13.20
04/30 19:00      0.00     20.82      4231     13.40
04/30 20:00      0.00     20.51      4059     12.70
04/30 21:00      0.00     20.15      3901     12.30
04/30 22:00      0.00     19.74      3722     12.30
04/30 23:00      0.00     19.27      3516     12.30